Time;durP1;ratioP1;P1;durP2;ratioP2;P2;SDS_P1;SDS_P2;PMS_P1;PMS_P2;Temp;Humidity;BMP_temperature;BMP_pressure;BME280_temperature;BME280_humidity;BME280_pressure;Samples;Min_cycle;Max_cycle;Signal;HPM_P1;HPM_P2
2023/06/14 00:02:15;;;;;;;4.00;1.70;;;18.70;90.30;;;;;;5007430;28;20091;-88
2023/06/14 00:04:45;;;;;;;4.18;1.50;;;18.60;90.40;;;;;;4992220;28;20057;-89
2023/06/14 00:07:13;;;;;;;5.35;2.15;;;18.60;90.60;;;;;;4993331;28;20065;-89
2023/06/14 00:09:39;;;;;;;5.15;1.83;;;18.60;90.70;;;;;;4980449;28;20033;-90
2023/06/14 00:12:06;;;;;;;5.07;1.52;;;18.50;90.70;;;;;;4987931;28;20042;-89
2023/06/14 00:14:31;;;;;;;4.60;1.70;;;18.40;90.70;;;;;;4999872;28;20057;-90
2023/06/14 00:16:58;;;;;;;3.70;1.40;;;18.40;90.90;;;;;;4969617;28;20042;-90
2023/06/14 00:19:25;;;;;;;9.10;1.70;;;18.30;90.80;;;;;;4996236;28;20053;-90
2023/06/14 00:21:51;;;;;;;4.05;1.90;;;18.40;91.00;;;;;;4990573;28;20046;-89
2023/06/14 00:24:17;;;;;;;5.35;1.70;;;18.40;90.90;;;;;;4991257;28;20069;-90
2023/06/14 00:26:43;;;;;;;9.02;1.98;;;18.40;90.90;;;;;;4989836;28;20046;-90
2023/06/14 00:29:09;;;;;;;7.82;1.90;;;18.30;90.90;;;;;;4978656;28;20041;-89
2023/06/14 00:31:35;;;;;;;5.55;2.05;;;18.30;91.00;;;;;;4981414;28;20506;-90
2023/06/14 00:34:00;;;;;;;4.32;1.52;;;18.30;91.00;;;;;;4977996;28;20041;-89
2023/06/14 00:36:26;;;;;;;4.95;1.60;;;18.30;91.20;;;;;;4982710;28;20121;-87
2023/06/14 00:38:52;;;;;;;3.95;1.65;;;18.20;91.20;;;;;;4975025;28;20038;-87
2023/06/14 00:41:21;;;;;;;5.72;2.35;;;18.10;91.20;;;;;;4993485;28;20125;-90
2023/06/14 00:43:47;;;;;;;5.20;2.10;;;18.10;91.30;;;;;;4977423;28;20081;-88
2023/06/14 00:46:13;;;;;;;6.78;2.40;;;18.00;91.20;;;;;;4984960;28;20042;-89
2023/06/14 00:48:40;;;;;;;6.40;2.30;;;18.00;91.40;;;;;;4961450;28;20042;-89
2023/06/14 00:51:06;;;;;;;4.75;2.55;;;18.00;91.40;;;;;;4980075;28;20473;-89
2023/06/14 00:53:35;;;;;;;6.03;3.20;;;18.00;91.50;;;;;;4969561;28;20042;-89
2023/06/14 00:56:01;;;;;;;6.85;2.70;;;17.90;91.50;;;;;;4978459;28;20090;-89
2023/06/14 00:58:28;;;;;;;5.75;3.25;;;17.90;91.50;;;;;;4998480;28;20481;-89
2023/06/14 01:00:54;;;;;;;6.97;2.88;;;17.90;91.60;;;;;;4971363;28;20034;-89
2023/06/14 01:03:22;;;;;;;5.32;2.83;;;17.80;91.80;;;;;;4997239;28;20038;-89
2023/06/14 01:06:26;;;;;;;7.50;3.50;;;17.80;91.90;;;;;;4998183;28;20773;-89
2023/06/14 01:09:08;;;;;;;6.15;3.50;;;17.70;92.00;;;;;;4996403;28;20046;-89
2023/06/14 01:11:43;;;;;;;6.80;3.42;;;17.70;92.10;;;;;;5003423;28;20104;-89
2023/06/14 01:14:12;;;;;;;7.05;3.90;;;17.70;92.10;;;;;;4990173;28;20038;-89
2023/06/14 01:16:39;;;;;;;4.97;2.70;;;17.60;92.20;;;;;;4951632;28;20041;-89
2023/06/14 01:19:08;;;;;;;6.35;3.17;;;17.60;92.20;;;;;;4979805;28;20050;-89
2023/06/14 01:21:41;;;;;;;7.43;3.45;;;17.60;92.30;;;;;;4971067;28;20038;-89
2023/06/14 01:24:12;;;;;;;5.20;2.80;;;17.50;92.30;;;;;;4977978;28;20176;-89
2023/06/14 01:26:45;;;;;;;6.22;3.17;;;17.50;92.50;;;;;;4968762;28;20049;-89
2023/06/14 01:29:16;;;;;;;5.95;3.10;;;17.40;92.60;;;;;;4968074;28;20041;-88
2023/06/14 01:31:42;;;;;;;7.97;3.35;;;17.40;92.70;;;;;;4996045;28;20042;-88
2023/06/14 01:34:08;;;;;;;7.03;3.42;;;18.00;92.90;;;;;;4977864;28;20038;-88
2023/06/14 01:36:36;;;;;;;6.15;3.25;;;17.30;92.70;;;;;;4965426;28;20045;-89
2023/06/14 01:39:04;;;;;;;8.63;3.80;;;17.30;92.80;;;;;;4993877;28;20517;-88
2023/06/14 01:41:31;;;;;;;6.40;3.28;;;17.20;92.90;;;;;;4981218;28;20042;-88
2023/06/14 01:43:58;;;;;;;5.85;3.47;;;17.20;93.00;;;;;;4978712;28;20077;-88
2023/06/14 01:46:25;;;;;;;7.63;3.65;;;17.20;93.10;;;;;;4988020;28;20658;-87
2023/06/14 01:48:51;;;;;;;6.25;3.75;;;17.50;93.20;;;;;;4977913;28;20038;-88
2023/06/14 01:51:17;;;;;;;6.97;3.15;;;17.10;93.30;;;;;;4973302;28;20030;-87
2023/06/14 01:53:42;;;;;;;8.30;3.35;;;17.10;93.30;;;;;;4993343;28;20034;-88
2023/06/14 01:56:08;;;;;;;6.85;3.03;;;17.10;93.30;;;;;;4981955;28;20473;-89
2023/06/14 01:58:35;;;;;;;7.88;2.80;;;17.00;93.30;;;;;;4975767;28;20042;-89
2023/06/14 02:01:02;;;;;;;6.35;2.80;;;17.00;93.40;;;;;;4994587;28;20081;-89
2023/06/14 02:03:27;;;;;;;6.07;2.53;;;17.00;93.40;;;;;;4965518;28;20381;-88
2023/06/14 02:05:54;;;;;;;4.40;2.35;;;17.00;93.50;;;;;;4974498;28;20145;-88
2023/06/14 02:08:20;;;;;;;4.78;2.28;;;17.10;93.50;;;;;;4990876;28;20109;-88
2023/06/14 02:10:45;;;;;;;7.07;3.40;;;16.90;93.50;;;;;;4965639;28;20135;-88
2023/06/14 02:13:12;;;;;;;4.93;2.72;;;16.90;93.60;;;;;;4984919;28;20487;-88
2023/06/14 02:15:37;;;;;;;6.28;2.00;;;16.90;93.70;;;;;;4964574;28;20394;-89
2023/06/14 02:18:04;;;;;;;4.22;1.60;;;16.90;93.60;;;;;;4982746;28;20042;-89
2023/06/14 02:20:30;;;;;;;5.78;1.88;;;16.90;93.70;;;;;;4977003;28;20038;-89
2023/06/14 02:22:56;;;;;;;4.82;1.85;;;16.90;93.80;;;;;;4980652;28;20049;-89
2023/06/14 02:25:22;;;;;;;6.53;2.10;;;17.00;93.70;;;;;;4999723;28;20050;-89
2023/06/14 02:27:48;;;;;;;3.90;1.80;;;16.80;93.70;;;;;;4969442;28;20530;-89
2023/06/14 02:30:15;;;;;;;4.30;1.95;;;16.80;93.80;;;;;;4994612;28;20042;-89
2023/06/14 02:32:42;;;;;;;4.68;2.22;;;16.80;93.90;;;;;;4980975;28;20263;-88
2023/06/14 02:35:08;;;;;;;4.93;1.65;;;16.70;94.00;;;;;;4975752;28;20041;-88
2023/06/14 02:37:34;;;;;;;5.22;1.88;;;16.70;94.10;;;;;;4995777;28;20034;-88
2023/06/14 02:39:59;;;;;;;5.10;2.38;;;16.80;94.00;;;;;;4993772;28;20464;-88
2023/06/14 02:42:25;;;;;;;7.00;2.10;;;16.60;94.10;;;;;;4966637;28;20883;-88
2023/06/14 02:44:51;;;;;;;7.40;1.75;;;16.60;93.90;;;;;;4976061;28;20050;-89
2023/06/14 02:47:18;;;;;;;4.18;1.67;;;16.60;94.00;;;;;;4981862;28;20062;-88
2023/06/14 02:49:46;;;;;;;4.10;1.67;;;16.60;94.00;;;;;;4981608;28;20046;-88
2023/06/14 02:52:12;;;;;;;4.43;2.10;;;16.70;94.10;;;;;;4974444;28;20124;-89
2023/06/14 02:54:38;;;;;;;5.40;1.70;;;16.60;94.10;;;;;;4993080;28;20045;-89
2023/06/14 02:57:04;;;;;;;4.70;1.95;;;16.60;94.10;;;;;;4974308;28;20034;-89
2023/06/14 02:59:29;;;;;;;4.82;2.05;;;16.50;94.20;;;;;;4983268;28;20034;-89
2023/06/14 03:01:55;;;;;;;3.55;1.67;;;16.50;94.30;;;;;;4990071;28;20118;-89
2023/06/14 03:04:20;;;;;;;4.18;2.00;;;16.50;94.30;;;;;;5002131;28;20168;-89
2023/06/14 03:06:50;;;;;;;5.40;1.90;;;16.40;94.50;;;;;;5001431;28;20038;-89
2023/06/14 03:09:16;;;;;;;4.30;1.77;;;16.40;94.50;;;;;;4983938;28;20046;-89
2023/06/14 03:11:42;;;;;;;3.72;1.90;;;16.40;94.40;;;;;;4978590;28;20046;-89
2023/06/14 03:14:08;;;;;;;5.90;1.98;;;16.30;94.50;;;;;;4978604;28;20064;-89
2023/06/14 03:16:34;;;;;;;3.40;1.60;;;16.70;94.60;;;;;;4968738;28;20038;-89
2023/06/14 03:19:00;;;;;;;3.75;1.80;;;16.30;94.70;;;;;;4995777;28;20037;-89
2023/06/14 03:21:26;;;;;;;4.95;1.85;;;16.30;94.60;;;;;;4978525;28;20034;-89
2023/06/14 03:23:52;;;;;;;3.05;1.45;;;16.30;94.70;;;;;;4987856;28;20776;-89
2023/06/14 03:26:25;;;;;;;4.32;1.85;;;16.30;94.70;;;;;;4975142;28;20408;-89
2023/06/14 03:28:51;;;;;;;4.05;1.90;;;16.30;94.80;;;;;;4973537;28;20042;-89
2023/06/14 03:31:16;;;;;;;3.72;1.83;;;16.20;94.80;;;;;;4985179;28;20049;-89
2023/06/14 03:33:44;;;;;;;6.68;2.10;;;16.20;94.70;;;;;;4967205;28;20042;-89
2023/06/14 03:36:10;;;;;;;4.57;2.22;;;16.20;94.80;;;;;;4965865;28;20043;-89
2023/06/14 03:38:36;;;;;;;4.53;1.75;;;16.20;95.00;;;;;;4984028;28;20041;-87
2023/06/14 03:41:02;;;;;;;4.60;1.98;;;16.20;95.00;;;;;;4997827;28;20227;-89
2023/06/14 03:43:28;;;;;;;5.35;2.05;;;16.20;95.00;;;;;;4969882;28;20057;-89
2023/06/14 03:45:54;;;;;;;7.90;2.13;;;16.20;94.90;;;;;;4995011;28;20061;-88
2023/06/14 03:48:19;;;;;;;4.25;2.00;;;16.10;95.10;;;;;;4984526;28;20042;-89
2023/06/14 03:50:47;;;;;;;6.10;2.58;;;16.10;95.10;;;;;;4993125;28;20038;-89
2023/06/14 03:53:12;;;;;;;5.75;1.90;;;16.10;95.30;;;;;;4981700;28;20049;-89
2023/06/14 03:55:39;;;;;;;6.70;2.10;;;16.10;95.30;;;;;;5000590;28;20049;-89
2023/06/14 03:58:07;;;;;;;7.72;2.10;;;16.10;95.40;;;;;;4984932;28;20231;-89
2023/06/14 04:00:33;;;;;;;5.13;2.28;;;16.10;95.40;;;;;;4988106;28;20044;-88
2023/06/14 04:02:59;;;;;;;7.25;2.38;;;16.10;95.50;;;;;;4983574;28;20117;-89
2023/06/14 04:05:26;;;;;;;5.28;2.50;;;16.00;95.60;;;;;;4988552;28;20089;-89
2023/06/14 04:07:55;;;;;;;5.35;2.08;;;16.00;95.50;;;;;;4986409;28;20042;-89
2023/06/14 04:10:25;;;;;;;6.00;2.50;;;16.00;95.50;;;;;;4970830;28;20038;-89
2023/06/14 04:12:53;;;;;;;5.47;2.80;;;16.00;95.50;;;;;;4968153;28;20045;-89
2023/06/14 04:15:19;;;;;;;10.13;2.70;;;16.00;95.70;;;;;;4977171;28;20049;-89
2023/06/14 04:17:46;;;;;;;6.40;2.85;;;16.00;95.80;;;;;;4990253;28;20057;-89
2023/06/14 04:20:11;;;;;;;7.68;2.35;;;16.00;95.70;;;;;;4993647;28;20497;-89
2023/06/14 04:22:37;;;;;;;6.53;2.70;;;16.10;95.70;;;;;;4986035;28;20122;-88
2023/06/14 04:25:06;;;;;;;5.10;2.30;;;16.10;95.90;;;;;;4971039;28;20052;-91
2023/06/14 04:27:43;;;;;;;9.90;2.90;;;16.00;95.80;;;;;;5010936;28;20033;-95
2023/06/14 04:30:13;;;;;;;7.18;3.00;;;16.00;95.70;;;;;;4985226;28;20042;-96
2023/06/14 04:32:42;;;;;;;6.20;2.60;;;16.00;95.70;;;;;;5022925;28;20057;-96
2023/06/14 04:35:14;;;;;;;5.88;2.60;;;16.00;95.70;;;;;;5017466;28;20065;-95
2023/06/14 04:37:53;;;;;;;6.75;3.03;;;16.00;95.60;;;;;;5000751;28;20033;-96
2023/06/14 04:40:23;;;;;;;6.00;2.58;;;16.10;96.00;;;;;;5004997;28;20174;-96
2023/06/14 04:42:55;;;;;;;7.35;3.08;;;15.90;96.00;;;;;;4998857;28;20045;-96
2023/06/14 04:45:22;;;;;;;6.90;2.40;;;16.10;95.90;;;;;;5033891;23;20054;-96
2023/06/14 04:47:58;;;;;;;6.78;2.78;;;16.10;96.10;;;;;;4993971;28;20058;-96
2023/06/14 04:50:24;;;;;;;5.25;2.83;;;16.10;95.90;;;;;;4989729;28;20057;-96
2023/06/14 04:52:51;;;;;;;6.03;2.33;;;16.10;96.10;;;;;;4981742;28;20042;-96
2023/06/14 04:55:18;;;;;;;7.20;2.78;;;16.10;96.00;;;;;;4990502;28;20126;-96
2023/06/14 04:57:47;;;;;;;7.35;2.65;;;16.10;96.40;;;;;;4980792;28;20138;-95
2023/06/14 05:00:13;;;;;;;7.25;2.72;;;16.40;96.40;;;;;;4989824;28;20035;-96
2023/06/14 05:02:40;;;;;;;8.02;2.42;;;16.10;96.30;;;;;;5004770;28;20187;-95
2023/06/14 05:05:06;;;;;;;5.20;2.40;;;16.10;96.20;;;;;;4973373;28;20077;-95
2023/06/14 05:07:33;;;;;;;10.15;3.03;;;16.10;96.40;;;;;;4993406;28;20114;-95
2023/06/14 05:09:59;;;;;;;6.55;2.88;;;16.10;96.40;;;;;;4992203;28;20042;-95
2023/06/14 05:12:29;;;;;;;4.80;2.55;;;16.20;96.30;;;;;;4995677;28;20259;-94
2023/06/14 05:14:58;;;;;;;5.25;2.17;;;16.20;96.30;;;;;;5034254;23;20078;-95
2023/06/14 05:17:31;;;;;;;6.18;2.70;;;16.20;96.60;;;;;;5011094;23;20057;-96
2023/06/14 05:19:57;;;;;;;7.25;3.08;;;16.50;96.60;;;;;;4995263;28;20772;-86
2023/06/14 05:22:27;;;;;;;7.18;3.50;;;16.20;96.60;;;;;;5005749;28;20132;-86
2023/06/14 05:24:52;;;;;;;6.35;2.83;;;16.30;96.90;;;;;;4994544;28;20041;-92
2023/06/14 05:27:18;;;;;;;8.55;3.10;;;16.20;96.80;;;;;;5003483;28;20118;-92
2023/06/14 05:29:44;;;;;;;9.32;2.65;;;16.30;96.90;;;;;;4997083;28;20041;-93
2023/06/14 05:32:11;;;;;;;4.95;2.25;;;16.30;96.80;;;;;;4989336;28;20100;-92
2023/06/14 05:34:37;;;;;;;7.20;3.10;;;16.30;96.60;;;;;;4981732;28;20046;-93
2023/06/14 05:37:03;;;;;;;7.25;2.63;;;16.00;96.80;;;;;;4998219;28;20038;-92
2023/06/14 05:39:30;;;;;;;6.70;2.80;;;16.40;96.80;;;;;;4999653;28;20046;-93
2023/06/14 05:41:56;;;;;;;10.18;2.67;;;15.90;96.60;;;;;;5002100;28;20029;-91
2023/06/14 05:44:27;;;;;;;8.48;2.80;;;15.90;97.00;;;;;;4997914;28;20046;-90
2023/06/14 05:46:53;;;;;;;7.15;2.75;;;16.40;97.00;;;;;;5003451;28;20074;-91
2023/06/14 05:49:19;;;;;;;6.45;3.22;;;16.40;97.00;;;;;;4989083;28;20041;-92
2023/06/14 05:51:45;;;;;;;9.15;3.10;;;16.50;97.10;;;;;;5000088;28;20069;-92
2023/06/14 05:54:11;;;;;;;7.63;3.28;;;16.40;97.00;;;;;;5013592;28;20041;-93
2023/06/14 05:56:37;;;;;;;6.05;3.03;;;16.50;97.10;;;;;;4988790;28;20038;-93
2023/06/14 05:59:02;;;;;;;9.15;2.83;;;16.50;97.00;;;;;;4981663;28;20040;-95
2023/06/14 06:01:28;;;;;;;5.10;2.63;;;16.60;97.00;;;;;;4973693;28;20037;-92
2023/06/14 06:03:54;;;;;;;5.05;2.40;;;16.60;97.10;;;;;;5011124;28;20042;-90
2023/06/14 06:06:19;;;;;;;7.40;2.90;;;16.60;96.90;;;;;;4976692;28;20121;-90
2023/06/14 06:08:46;;;;;;;5.60;2.90;;;16.90;96.90;;;;;;4985763;28;20045;-87
2023/06/14 06:11:12;;;;;;;7.55;3.15;;;16.70;97.00;;;;;;4991645;28;20041;-90
2023/06/14 06:13:39;;;;;;;6.15;2.63;;;16.70;96.90;;;;;;5014783;28;20125;-90
2023/06/14 06:16:04;;;;;;;8.05;2.70;;;16.70;96.80;;;;;;4995734;28;20172;-96
2023/06/14 06:18:30;;;;;;;7.72;2.75;;;16.80;96.80;;;;;;5011139;28;20069;-94
2023/06/14 06:20:56;;;;;;;8.82;2.60;;;16.80;96.80;;;;;;4997164;28;20048;-95
2023/06/14 06:23:21;;;;;;;5.40;2.80;;;16.90;97.10;;;;;;5005319;28;20053;-93
2023/06/14 06:25:47;;;;;;;6.65;2.30;;;16.90;97.10;;;;;;4992306;28;20066;-96
2023/06/14 06:28:13;;;;;;;6.75;2.63;;;16.90;96.80;;;;;;5010406;28;20034;-96
2023/06/14 06:30:38;;;;;;;8.77;3.17;;;17.00;96.90;;;;;;4983574;28;20038;-94
2023/06/14 06:33:04;;;;;;;5.38;2.58;;;17.00;96.90;;;;;;4995593;28;20026;-92
2023/06/14 06:35:30;;;;;;;6.50;2.38;;;17.10;96.80;;;;;;4996291;28;20049;-93
2023/06/14 06:37:57;;;;;;;8.80;2.70;;;17.10;96.70;;;;;;5014953;28;20091;-90
2023/06/14 06:40:23;;;;;;;6.65;2.55;;;17.20;96.80;;;;;;4971815;28;20043;-91
2023/06/14 06:42:49;;;;;;;10.73;3.08;;;17.30;96.80;;;;;;4992266;28;20058;-92
2023/06/14 06:45:15;;;;;;;7.97;2.63;;;17.40;96.60;;;;;;5015528;28;20085;-92
2023/06/14 06:47:41;;;;;;;7.97;2.97;;;17.40;96.50;;;;;;4994310;28;20046;-91
2023/06/14 06:50:07;;;;;;;7.70;2.63;;;17.50;96.40;;;;;;5010675;28;20034;-90
2023/06/14 06:52:33;;;;;;;5.05;2.10;;;17.60;96.40;;;;;;4982585;28;20096;-91
2023/06/14 06:54:59;;;;;;;4.53;2.30;;;17.60;96.10;;;;;;4997131;28;20045;-93
2023/06/14 06:57:24;;;;;;;5.32;2.50;;;17.70;96.10;;;;;;4997162;28;20097;-91
2023/06/14 06:59:50;;;;;;;6.80;2.65;;;17.70;96.10;;;;;;5001546;28;20438;-93
2023/06/14 07:02:16;;;;;;;10.40;2.47;;;17.80;96.10;;;;;;4993566;28;20038;-94
2023/06/14 07:04:42;;;;;;;5.82;2.10;;;17.90;95.90;;;;;;5002237;28;20050;-95
2023/06/14 07:07:09;;;;;;;6.65;2.10;;;17.90;95.60;;;;;;5001877;28;20031;-92
2023/06/14 07:09:35;;;;;;;7.85;2.10;;;18.20;95.30;;;;;;5003009;28;20042;-92
2023/06/14 07:12:01;;;;;;;4.53;1.90;;;18.40;95.20;;;;;;4984409;28;20034;-91
2023/06/14 07:14:26;;;;;;;6.97;2.80;;;18.60;95.10;;;;;;4991197;28;20381;-90
2023/06/14 07:16:52;;;;;;;27.50;5.10;;;18.90;95.00;;;;;;4992494;28;20046;-90
2023/06/14 07:19:18;;;;;;;18.67;3.78;;;19.20;95.00;;;;;;4989451;28;20136;-90
2023/06/14 07:21:43;;;;;;;9.60;2.70;;;19.60;94.70;;;;;;4982932;28;20053;-90
2023/06/14 07:24:09;;;;;;;9.05;2.20;;;20.00;94.50;;;;;;5002586;28;20088;-91
2023/06/14 07:26:35;;;;;;;5.28;2.55;;;20.40;93.70;;;;;;4989979;28;20042;-87
2023/06/14 07:29:01;;;;;;;7.60;2.20;;;20.70;93.40;;;;;;4987138;28;20046;-90
2023/06/14 07:31:27;;;;;;;7.90;2.20;;;21.00;93.10;;;;;;4989217;28;20090;-89
2023/06/14 07:33:53;;;;;;;8.88;2.58;;;21.20;92.80;;;;;;4989234;28;20038;-87
2023/06/14 07:36:19;;;;;;;6.05;2.35;;;21.50;92.50;;;;;;5008615;28;20393;-87
2023/06/14 07:38:46;;;;;;;4.80;1.80;;;21.70;92.50;;;;;;4989554;28;20056;-93
2023/06/14 07:41:12;;;;;;;5.57;1.95;;;22.00;92.10;;;;;;5018615;28;20082;-95
2023/06/14 07:43:38;;;;;;;8.32;2.17;;;22.00;91.90;;;;;;5005796;28;20069;-95
2023/06/14 07:46:04;;;;;;;4.95;1.85;;;22.10;91.60;;;;;;5012601;28;20034;-96
2023/06/14 08:06:47;;;;;;;6.50;2.00;;;22.50;90.90;;;;;;4294122;23;20064;-93
2023/06/14 08:09:15;;;;;;;8.10;2.03;;;22.50;90.80;;;;;;4987729;28;20118;-95
2023/06/14 08:11:42;;;;;;;5.57;2.15;;;22.80;90.50;;;;;;4975416;28;20042;-95
2023/06/14 08:14:10;;;;;;;4.10;1.75;;;22.60;90.30;;;;;;4984282;28;20049;-90
2023/06/14 08:16:44;;;;;;;9.18;3.95;;;22.50;90.00;;;;;;4990854;28;20050;-95
2023/06/14 08:19:11;;;;;;;5.60;2.08;;;22.60;90.10;;;;;;4988753;28;20065;-88
2023/06/14 08:21:37;;;;;;;10.05;2.05;;;22.70;90.30;;;;;;5008307;28;20038;-92
2023/06/14 08:24:05;;;;;;;5.90;1.95;;;22.70;90.10;;;;;;5025143;28;20042;-89
2023/06/14 08:26:36;;;;;;;6.80;1.92;;;22.80;90.10;;;;;;5002143;28;20046;-95
2023/06/14 08:31:37;;;;;;;3.08;1.70;;;22.90;90.00;;;;;;5024809;23;20065;-92
2023/06/14 08:34:03;;;;;;;11.15;2.10;;;22.80;89.60;;;;;;5019138;28;20058;-93
2023/06/14 08:36:29;;;;;;;6.28;1.75;;;22.80;89.50;;;;;;5033219;28;20050;-90
2023/06/14 08:38:55;;;;;;;4.88;1.85;;;22.80;88.90;;;;;;4990589;28;20400;-90
2023/06/14 08:41:24;;;;;;;5.80;1.40;;;22.80;88.80;;;;;;4990187;28;20485;-91
2023/06/14 08:43:59;;;;;;;5.80;2.00;;;22.80;88.70;;;;;;5011043;28;20057;-90
2023/06/14 08:46:27;;;;;;;4.95;1.98;;;22.80;88.40;;;;;;5001745;28;20042;-89
2023/06/14 08:48:56;;;;;;;7.35;2.13;;;22.90;88.30;;;;;;4992550;28;20065;-90
2023/06/14 08:51:24;;;;;;;4.53;1.85;;;22.90;88.20;;;;;;4994706;28;20049;-91
2023/06/14 08:53:57;;;;;;;8.23;2.67;;;22.90;87.80;;;;;;5026978;28;20070;-90
2023/06/14 08:56:29;;;;;;;6.93;2.03;;;23.00;87.60;;;;;;5023325;28;20504;-85
2023/06/14 08:59:02;;;;;;;5.68;2.20;;;23.00;88.00;;;;;;4977721;28;20478;-85
2023/06/14 09:01:31;;;;;;;3.78;1.73;;;23.10;88.10;;;;;;4997298;28;20085;-85
2023/06/14 09:03:57;;;;;;;6.07;2.17;;;23.20;87.60;;;;;;4999743;28;20053;-85
2023/06/14 09:06:24;;;;;;;4.75;2.00;;;23.20;87.30;;;;;;4997143;28;20054;-85
2023/06/14 09:08:51;;;;;;;7.57;2.00;;;23.20;87.30;;;;;;4984738;28;20200;-86
2023/06/14 09:11:18;;;;;;;5.82;2.13;;;23.30;87.50;;;;;;4995317;28;20042;-87
2023/06/14 09:13:46;;;;;;;5.82;1.80;;;23.40;87.40;;;;;;4982658;28;20125;-86
2023/06/14 09:16:14;;;;;;;6.57;2.22;;;23.40;87.40;;;;;;5022208;28;20124;-85
2023/06/14 09:18:49;;;;;;;6.13;2.40;;;23.50;87.20;;;;;;4992997;28;20615;-84
2023/06/14 09:21:16;;;;;;;7.25;2.35;;;23.50;86.70;;;;;;4988004;28;20078;-84
2023/06/14 09:23:47;;;;;;;6.78;1.90;;;23.50;85.90;;;;;;5013663;28;20042;-84
2023/06/14 09:26:22;;;;;;;5.60;1.70;;;23.50;85.30;;;;;;4982113;28;20489;-84
2023/06/14 09:28:50;;;;;;;5.00;1.92;;;23.60;86.10;;;;;;5032070;23;20038;-89
2023/06/14 09:31:31;;;;;;;5.00;1.80;;;23.60;85.30;;;;;;5002282;28;20049;-88
2023/06/14 09:33:57;;;;;;;11.10;2.05;;;23.60;85.60;;;;;;4995183;28;20101;-89
2023/06/14 09:36:25;;;;;;;5.50;1.70;;;23.70;85.80;;;;;;4997675;28;20124;-86
2023/06/14 09:38:57;;;;;;;6.43;2.28;;;23.70;85.60;;;;;;5001655;28;20046;-86
2023/06/14 09:41:36;;;;;;;3.60;1.93;;;23.80;85.30;;;;;;4999232;28;20087;-84
2023/06/14 09:44:05;;;;;;;8.05;2.08;;;23.90;85.40;;;;;;4999479;28;20499;-85
2023/06/14 09:46:32;;;;;;;5.10;1.80;;;23.90;85.90;;;;;;5002106;28;20064;-85
2023/06/14 09:48:58;;;;;;;5.40;1.83;;;24.00;86.00;;;;;;4982295;28;20046;-83
2023/06/14 09:51:24;;;;;;;5.53;1.90;;;24.10;85.70;;;;;;4994835;28;20053;-90
2023/06/14 09:53:54;;;;;;;4.32;1.90;;;24.10;84.90;;;;;;4997245;28;20097;-87
2023/06/14 09:56:29;;;;;;;6.22;1.40;;;24.10;84.70;;;;;;4981607;28;20111;-90
2023/06/14 09:58:57;;;;;;;4.78;1.60;;;24.10;85.10;;;;;;4987302;28;20389;-88
2023/06/14 10:04:03;;;;;;;4.30;1.92;;;24.20;84.30;;;;;;4974971;28;20094;-84
2023/06/14 10:06:36;;;;;;;4.82;1.63;;;24.20;83.60;;;;;;4956127;28;20054;-83
2023/06/14 10:09:07;;;;;;;7.13;1.60;;;24.10;83.70;;;;;;4952246;28;20077;-86
2023/06/14 10:11:35;;;;;;;3.55;1.60;;;24.10;83.70;;;;;;4954348;28;20039;-88
2023/06/14 10:14:04;;;;;;;4.43;1.95;;;24.10;83.60;;;;;;4961470;28;20042;-88
2023/06/14 10:16:46;;;;;;;4.03;1.50;;;24.10;84.10;;;;;;4976424;28;20053;-86
2023/06/14 10:20:13;;;;;;;5.32;1.70;;;24.20;84.30;;;;;;4958019;28;20039;-89
2023/06/14 10:22:50;;;;;;;7.72;1.77;;;24.30;83.20;;;;;;4886813;29;20548;-87
2023/06/14 10:25:31;;;;;;;5.18;2.00;;;24.40;83.60;;;;;;4894766;29;20115;-87
2023/06/14 10:28:26;;;;;;;5.13;1.67;;;24.40;83.40;;;;;;4898129;29;20630;-85
2023/06/14 10:31:05;;;;;;;3.67;1.70;;;24.40;83.60;;;;;;4895545;29;20088;-84
2023/06/14 10:33:36;;;;;;;6.63;1.75;;;24.60;83.50;;;;;;4897089;29;20464;-91
2023/06/14 10:36:28;;;;;;;5.95;1.40;;;24.60;83.00;;;;;;4877196;29;20044;-88
2023/06/14 10:39:04;;;;;;;4.10;1.40;;;24.70;82.50;;;;;;4883182;29;20037;-85
2023/06/14 10:41:30;;;;;;;4.97;1.48;;;24.80;82.50;;;;;;4891152;29;20044;-84
2023/06/14 10:44:24;;;;;;;6.28;1.70;;;24.90;82.50;;;;;;4889833;29;20056;-84
2023/06/14 10:46:54;;;;;;;4.45;1.02;;;25.00;81.60;;;;;;4904107;29;20049;-86
2023/06/14 10:49:44;;;;;;;4.22;1.35;;;25.10;80.70;;;;;;4866916;29;20045;-84
2023/06/14 10:52:20;;;;;;;4.75;1.20;;;25.20;79.70;;;;;;4908964;29;20051;-87
2023/06/14 10:55:18;;;;;;;4.18;0.98;;;25.20;78.90;;;;;;4979192;28;20325;-86
2023/06/14 10:57:50;;;;;;;3.20;1.10;;;25.30;78.90;;;;;;4952688;28;20191;-88
2023/06/14 11:00:21;;;;;;;5.03;1.02;;;25.30;78.40;;;;;;4971184;28;20046;-89
2023/06/14 11:03:15;;;;;;;3.30;1.10;;;25.30;78.00;;;;;;4937767;28;20490;-90
2023/06/14 11:05:52;;;;;;;4.60;1.10;;;25.40;78.00;;;;;;4976804;28;20094;-89
2023/06/14 11:08:43;;;;;;;4.40;1.10;;;25.40;78.20;;;;;;4965865;28;20089;-85
2023/06/14 11:11:10;;;;;;;7.95;1.17;;;25.40;78.10;;;;;;4951047;28;20043;-90
2023/06/14 11:13:41;;;;;;;2.97;1.02;;;25.50;77.80;;;;;;4962743;28;20039;-87
2023/06/14 11:16:18;;;;;;;6.28;0.82;;;25.50;77.90;;;;;;4971518;28;20042;-87
2023/06/14 11:18:45;;;;;;;3.88;1.00;;;25.70;79.50;;;;;;4943531;29;20102;-84
2023/06/14 11:21:11;;;;;;;2.65;1.00;;;25.70;78.90;;;;;;4941921;29;20039;-90
2023/06/14 11:23:37;;;;;;;5.05;1.20;;;25.80;79.00;;;;;;4958646;28;20043;-89
2023/06/14 11:26:04;;;;;;;5.90;1.30;;;25.90;79.20;;;;;;4945197;28;20039;-86
2023/06/14 11:28:41;;;;;;;5.80;0.98;;;26.00;79.10;;;;;;4949069;28;20553;-93
2023/06/14 11:31:07;;;;;;;3.42;1.10;;;26.10;79.40;;;;;;4951340;28;20194;-92
2023/06/14 11:33:34;;;;;;;5.28;1.08;;;26.20;78.80;;;;;;4963128;28;20398;-88
2023/06/14 11:36:04;;;;;;;3.33;1.25;;;26.20;78.10;;;;;;4979536;28;20051;-90
2023/06/14 11:38:34;;;;;;;8.40;1.27;;;26.30;77.70;;;;;;4958455;28;20074;-89
2023/06/14 11:41:00;;;;;;;5.45;1.15;;;26.30;77.50;;;;;;4971686;28;20043;-90
2023/06/14 11:43:26;;;;;;;3.80;1.40;;;26.30;78.70;;;;;;4973194;28;20070;-89
2023/06/14 11:45:52;;;;;;;3.17;1.08;;;26.40;78.60;;;;;;4960445;28;20486;-90
2023/06/14 11:48:19;;;;;;;7.38;1.30;;;26.50;78.70;;;;;;4950597;29;20070;-89
2023/06/14 11:50:50;;;;;;;4.68;1.52;;;26.50;78.50;;;;;;4962152;28;20054;-84
2023/06/14 11:53:16;;;;;;;8.40;1.60;;;26.60;77.00;;;;;;4972946;28;20039;-86
2023/06/14 11:55:44;;;;;;;3.03;1.38;;;26.60;78.10;;;;;;4951711;28;20098;-88
2023/06/14 11:58:10;;;;;;;5.90;1.30;;;26.60;79.10;;;;;;4954556;28;20085;-88
2023/06/14 12:00:36;;;;;;;4.03;1.17;;;26.70;78.60;;;;;;4954402;28;20117;-86
2023/06/14 12:03:03;;;;;;;3.33;1.10;;;26.70;77.60;;;;;;4977418;28;20105;-87
2023/06/14 12:05:28;;;;;;;2.67;1.10;;;26.70;78.00;;;;;;4988016;28;20414;-87
2023/06/14 12:08:03;;;;;;;3.63;1.33;;;26.80;78.00;;;;;;4994457;28;20038;-95
2023/06/14 12:10:29;;;;;;;7.65;1.38;;;26.90;79.30;;;;;;4973841;28;20101;-91
2023/06/14 12:12:59;;;;;;;3.90;1.30;;;27.00;78.60;;;;;;4964747;28;20046;-95
2023/06/14 12:15:28;;;;;;;5.90;1.20;;;27.00;78.30;;;;;;4997621;28;20116;-92
2023/06/14 12:20:30;;;;;;;4.78;1.40;;;26.90;76.80;;;;;;5027409;23;20556;-94
2023/06/14 12:23:02;;;;;;;4.70;1.58;;;26.90;77.20;;;;;;5001997;28;20059;-92
2023/06/14 12:25:32;;;;;;;5.05;1.50;;;27.00;78.90;;;;;;5017276;28;20049;-91
2023/06/14 12:28:10;;;;;;;6.57;1.40;;;27.10;78.70;;;;;;5008729;28;20041;-91
2023/06/14 12:30:37;;;;;;;3.08;1.10;;;27.20;78.00;;;;;;5003051;28;20121;-88
2023/06/14 12:33:03;;;;;;;5.38;1.45;;;27.40;77.80;;;;;;5006903;28;20042;-88
2023/06/14 12:35:30;;;;;;;3.90;1.30;;;27.50;77.60;;;;;;4990428;28;20049;-91
2023/06/14 12:37:56;;;;;;;5.20;1.20;;;27.50;79.00;;;;;;4988263;28;20505;-94
2023/06/14 12:40:22;;;;;;;4.45;1.50;;;27.60;77.30;;;;;;5004841;28;20062;-93
2023/06/14 12:42:52;;;;;;;4.00;1.40;;;27.70;76.50;;;;;;5005658;28;20065;-92
2023/06/14 12:45:18;;;;;;;4.40;1.35;;;27.70;78.40;;;;;;4983924;28;20088;-90
2023/06/14 12:47:43;;;;;;;4.55;1.50;;;27.80;77.50;;;;;;5007850;28;20049;-89
2023/06/14 12:50:09;;;;;;;4.63;1.50;;;27.80;76.40;;;;;;5008097;28;20100;-88
2023/06/14 12:52:36;;;;;;;2.72;1.10;;;27.80;76.70;;;;;;5000562;28;20042;-87
2023/06/14 12:55:04;;;;;;;4.57;1.50;;;27.80;77.00;;;;;;4979868;28;20052;-90
2023/06/14 12:57:30;;;;;;;3.22;1.38;;;27.90;77.00;;;;;;4977576;28;20057;-86
2023/06/14 12:59:55;;;;;;;8.07;1.58;;;28.00;77.60;;;;;;4987812;28;20034;-90
2023/06/14 13:02:24;;;;;;;5.65;1.45;;;28.10;76.20;;;;;;5006902;28;20046;-91
2023/06/14 13:04:50;;;;;;;3.75;1.35;;;28.10;76.10;;;;;;4996469;28;20046;-89
2023/06/14 13:07:16;;;;;;;4.20;1.40;;;28.20;76.70;;;;;;4981996;28;20072;-93
2023/06/14 13:09:43;;;;;;;3.88;1.20;;;28.30;77.50;;;;;;5006989;28;20038;-86
2023/06/14 13:12:13;;;;;;;4.47;1.27;;;28.30;76.80;;;;;;5003953;28;20056;-95
2023/06/14 13:14:40;;;;;;;3.65;1.48;;;28.20;76.90;;;;;;4987481;28;20049;-87
2023/06/14 13:17:10;;;;;;;4.03;1.30;;;28.10;77.30;;;;;;4988678;28;20125;-88
2023/06/14 13:19:36;;;;;;;4.25;1.20;;;28.20;77.10;;;;;;4995948;28;20061;-89